Time;durP1;ratioP1;P1;durP2;ratioP2;P2;SDS_P1;SDS_P2;PMS_P1;PMS_P2;Temp;Humidity;BMP_temperature;BMP_pressure;BME280_temperature;BME280_humidity;BME280_pressure;Samples;Min_cycle;Max_cycle;Signal;HPM_P1;HPM_P2
2022/12/24 00:02:14;;;;;;;64.00;38.30;;;;;;;2.97;100.00;97430.17;103230;1297;139136;-75
2022/12/24 00:04:40;;;;;;;63.60;38.50;;;;;;;2.96;100.00;97431.60;103220;1288;24993;-76
2022/12/24 00:07:06;;;;;;;61.90;36.70;;;;;;;2.95;100.00;97432.85;103075;1304;25257;-76
2022/12/24 00:09:32;;;;;;;56.50;33.90;;;;;;;2.94;100.00;97433.31;103031;1289;138281;-76
2022/12/24 00:11:58;;;;;;;58.90;34.10;;;;;;;2.93;100.00;97427.20;103102;1303;22541;-76
2022/12/24 00:14:25;;;;;;;53.90;33.40;;;;;;;2.93;100.00;97427.67;103011;1284;139430;-75
2022/12/24 00:16:51;;;;;;;54.80;32.40;;;;;;;2.92;100.00;97424.24;103030;1289;22501;-76
2022/12/24 00:19:17;;;;;;;56.00;30.80;;;;;;;2.91;100.00;97418.30;103043;1312;22490;-76
2022/12/24 00:21:43;;;;;;;46.20;28.60;;;;;;;2.91;100.00;97412.59;102973;1298;138291;-76
2022/12/24 00:24:09;;;;;;;47.70;28.60;;;;;;;2.89;100.00;97407.02;103155;1304;22489;-76
2022/12/24 00:26:35;;;;;;;53.60;30.30;;;;;;;2.91;100.00;97407.66;102873;1297;139418;-76
2022/12/24 00:29:02;;;;;;;56.00;31.80;;;;;;;2.92;100.00;97402.65;103097;1291;25431;-76
2022/12/24 00:31:28;;;;;;;51.50;31.00;;;;;;;2.93;100.00;97398.21;103380;1288;22544;-76
2022/12/24 00:33:55;;;;;;;57.50;32.90;;;;;;;2.94;100.00;97396.59;103031;1313;138265;-75
2022/12/24 00:36:21;;;;;;;56.70;34.10;;;;;;;2.95;100.00;97391.33;103201;1291;25320;-76
2022/12/24 00:38:48;;;;;;;53.20;32.90;;;;;;;2.95;100.00;97389.55;105093;1313;138843;-76
2022/12/24 00:41:23;;;;;;;57.90;34.30;;;;;;;2.95;100.00;97389.51;103384;1297;22951;-76
2022/12/24 00:44:09;;;;;;;55.50;33.20;;;;;;;2.95;100.00;97392.86;102113;1296;22486;-76
2022/12/24 00:46:37;;;;;;;57.10;34.00;;;;;;;2.95;100.00;97391.71;103102;1298;138279;-75
2022/12/24 00:49:05;;;;;;;56.90;32.20;;;;;;;2.92;100.00;97390.61;102999;1284;22498;-76
2022/12/24 00:51:32;;;;;;;55.50;34.10;;;;;;;2.90;100.00;97391.45;102984;1304;138413;-76
2022/12/24 00:53:59;;;;;;;50.10;31.00;;;;;;;2.89;100.00;97387.55;103164;1289;22500;-76
2022/12/24 00:56:25;;;;;;;54.00;31.00;;;;;;;2.87;100.00;97390.49;103068;1289;138406;-76
2022/12/24 00:58:52;;;;;;;51.70;29.40;;;;;;;2.87;100.00;97387.31;103402;1291;24507;-75
2022/12/24 01:01:19;;;;;;;54.30;29.10;;;;;;;2.85;100.00;97381.04;103277;1281;26109;-75
2022/12/24 01:03:45;;;;;;;44.50;27.70;;;;;;;2.84;100.00;97371.86;103043;1297;138426;-76
2022/12/24 01:06:17;;;;;;;49.20;28.90;;;;;;;2.83;100.00;97368.61;102841;1301;23357;-75
2022/12/24 01:08:44;;;;;;;46.80;27.40;;;;;;;2.81;100.00;97361.34;103195;1300;139022;-76
2022/12/24 01:11:11;;;;;;;44.10;26.30;;;;;;;2.79;100.00;97356.36;103190;1289;22345;-75
2022/12/24 01:13:38;;;;;;;43.40;27.00;;;;;;;2.76;100.00;97351.27;103222;1289;23013;-76
2022/12/24 01:16:14;;;;;;;42.80;25.90;;;;;;;2.72;100.00;97350.36;103085;1304;138816;-76
2022/12/24 01:18:40;;;;;;;44.10;27.10;;;;;;;2.69;100.00;97345.59;103073;1281;24259;-76
2022/12/24 01:21:06;;;;;;;44.20;27.00;;;;;;;2.66;100.00;97341.04;102994;1291;138209;-75
2022/12/24 01:23:33;;;;;;;45.70;26.50;;;;;;;2.63;100.00;97342.20;103196;1287;25213;-76
2022/12/24 01:26:01;;;;;;;43.90;27.20;;;;;;;2.64;100.00;97344.16;103288;1288;22534;-76
2022/12/24 01:28:27;;;;;;;46.00;29.50;;;;;;;2.62;100.00;97341.56;103117;1291;138464;-76
2022/12/24 01:30:53;;;;;;;50.50;29.80;;;;;;;2.61;100.00;97344.70;102932;1313;22502;-76
2022/12/24 01:33:20;;;;;;;53.20;32.00;;;;;;;2.60;100.00;97340.10;103049;1298;138242;-76
2022/12/24 01:35:46;;;;;;;48.90;30.30;;;;;;;2.58;100.00;97333.86;103132;1282;23885;-76
2022/12/24 01:38:14;;;;;;;48.40;29.00;;;;;;;2.57;100.00;97330.08;103273;1305;22603;-76
2022/12/24 01:43:30;;;;;;;52.10;29.20;;;;;;;2.56;100.00;97333.64;103498;1289;24282;-76
2022/12/24 01:46:10;;;;;;;48.40;27.00;;;;;;;2.56;100.00;97337.45;102977;1312;138252;-76
2022/12/24 01:48:51;;;;;;;47.00;29.60;;;;;;;2.57;100.00;97336.89;103075;1298;22468;-76
2022/12/24 01:51:38;;;;;;;46.00;27.90;;;;;;;2.58;100.00;97332.98;102910;1288;138423;-76
2022/12/24 01:54:09;;;;;;;46.20;28.50;;;;;;;2.57;100.00;97334.38;103113;1289;25209;-76
2022/12/24 01:56:39;;;;;;;44.10;27.70;;;;;;;2.58;100.00;97337.66;103056;1313;139562;-76
2022/12/24 01:59:10;;;;;;;43.70;26.90;;;;;;;2.59;100.00;97331.64;103316;1281;24351;-76
2022/12/24 02:01:38;;;;;;;46.50;27.40;;;;;;;2.60;100.00;97339.02;103192;1281;22468;-76
2022/12/24 02:04:16;;;;;;;43.50;25.70;;;;;;;2.60;100.00;97343.60;103132;1291;138342;-76
2022/12/24 02:06:42;;;;;;;46.20;27.90;;;;;;;2.63;100.00;97342.83;102970;1294;24432;-76
2022/12/24 02:09:09;;;;;;;45.30;27.20;;;;;;;2.65;100.00;97335.86;102880;1298;139238;-76
2022/12/24 02:11:40;;;;;;;43.50;27.10;;;;;;;2.67;100.00;97331.51;103027;1306;22530;-75
2022/12/24 02:14:06;;;;;;;41.30;26.40;;;;;;;2.68;100.00;97338.69;103107;1305;22487;-76
2022/12/24 02:16:57;;;;;;;42.80;26.30;;;;;;;2.71;100.00;97332.63;103313;1313;138116;-76
2022/12/24 02:19:41;;;;;;;43.10;25.50;;;;;;;2.73;100.00;97328.02;103100;1313;23704;-76
2022/12/24 02:22:33;;;;;;;43.40;26.40;;;;;;;2.72;100.00;97323.23;102913;1295;139062;-75
2022/12/24 02:25:16;;;;;;;38.60;23.20;;;;;;;2.72;100.00;97326.21;102935;1305;22486;-75
2022/12/24 02:27:46;;;;;;;42.20;24.90;;;;;;;2.73;100.00;97321.23;102910;1298;138406;-76
2022/12/24 02:30:58;;;;;;;43.10;26.40;;;;;;;2.74;100.00;97315.52;102838;1313;24397;-76
2022/12/24 02:33:41;;;;;;;39.40;23.80;;;;;;;2.74;100.00;97314.89;102161;1306;139447;-76
2022/12/24 02:36:16;;;;;;;37.30;22.80;;;;;;;2.76;100.00;97314.70;102165;1304;25377;-76
2022/12/24 02:38:52;;;;;;;35.10;20.90;;;;;;;2.75;100.00;97315.23;102128;1294;138489;-75
2022/12/24 02:41:24;;;;;;;34.90;20.90;;;;;;;2.76;100.00;97316.98;102046;1321;22509;-76
2022/12/24 02:43:53;;;;;;;33.50;20.70;;;;;;;2.77;100.00;97312.92;102331;1303;24425;-76
2022/12/24 02:46:24;;;;;;;32.80;18.70;;;;;;;2.77;100.00;97317.13;101885;1321;138352;-76
2022/12/24 02:48:51;;;;;;;31.50;18.70;;;;;;;2.80;100.00;97312.77;102056;1302;24262;-76
2022/12/24 02:51:23;;;;;;;27.20;17.20;;;;;;;2.81;100.00;97305.14;102033;1319;138771;-76
2022/12/24 02:53:49;;;;;;;30.30;18.20;;;;;;;2.81;100.00;97315.25;102219;1316;22530;-76
2022/12/24 02:56:25;;;;;;;29.10;17.40;;;;;;;2.84;100.00;97319.16;102146;1295;22476;-76
2022/12/24 02:58:53;;;;;;;28.90;17.90;;;;;;;2.86;100.00;97319.67;102167;1294;25437;-76
2022/12/24 03:01:56;;;;;;;31.20;20.10;;;;;;;2.87;100.00;97320.79;102126;1306;22621;-76
2022/12/24 03:04:39;;;;;;;30.40;18.80;;;;;;;2.85;100.00;97318.69;101890;1310;138830;-76
2022/12/24 03:07:20;;;;;;;23.10;15.10;;;;;;;2.83;100.00;97316.13;102189;1313;22582;-76
2022/12/24 03:09:56;;;;;;;27.10;16.50;;;;;;;2.81;100.00;97322.46;102256;1303;138780;-76
2022/12/24 03:12:36;;;;;;;32.70;18.90;;;;;;;2.81;100.00;97311.50;102009;1306;22651;-76
2022/12/24 03:15:08;;;;;;;38.30;22.50;;;;;;;2.78;100.00;97313.56;102308;1295;138825;-76
2022/12/24 03:17:36;;;;;;;33.50;20.80;;;;;;;2.75;100.00;97315.39;102141;1297;25428;-76
2022/12/24 03:20:05;;;;;;;29.50;18.70;;;;;;;2.71;100.00;97318.61;102201;1304;22486;-76
2022/12/24 03:22:33;;;;;;;35.80;22.10;;;;;;;2.67;100.00;97329.23;102092;1303;138668;-76
2022/12/24 03:25:01;;;;;;;32.50;21.40;;;;;;;2.64;100.00;97328.02;101934;1306;23368;-76
2022/12/24 03:27:31;;;;;;;30.30;19.20;;;;;;;2.60;100.00;97320.11;102178;1304;140536;-76
2022/12/24 03:29:58;;;;;;;30.20;17.80;;;;;;;2.58;100.00;97319.69;102356;1310;24304;-76
2022/12/24 03:32:27;;;;;;;26.60;17.20;;;;;;;2.58;100.00;97322.98;102299;1310;138457;-75
2022/12/24 03:34:54;;;;;;;32.70;17.20;;;;;;;2.58;100.00;97332.34;102418;1295;24219;-76
2022/12/24 03:37:22;;;;;;;27.20;17.00;;;;;;;2.58;100.00;97336.59;102395;1295;25381;-76
2022/12/24 03:39:48;;;;;;;36.10;21.80;;;;;;;2.56;100.00;97336.34;102238;1293;140394;-76
2022/12/24 03:42:14;;;;;;;32.50;21.40;;;;;;;2.53;100.00;97329.45;102843;1289;25281;-76
2022/12/24 03:44:40;;;;;;;24.10;16.00;;;;;;;2.50;100.00;97323.98;102939;1313;139196;-76
2022/12/24 03:47:07;;;;;;;28.10;16.30;;;;;;;2.46;100.00;97333.89;102505;1313;24308;-76
2022/12/24 03:49:33;;;;;;;36.80;21.60;;;;;;;2.46;100.00;97340.74;102731;1313;22490;-76
2022/12/24 03:51:59;;;;;;;39.70;24.30;;;;;;;2.39;100.00;97343.27;102710;1306;138348;-76
2022/12/24 03:54:25;;;;;;;50.10;28.70;;;;;;;2.30;100.00;97343.95;102817;1290;22494;-76
2022/12/24 03:56:51;;;;;;;44.30;26.10;;;;;;;2.26;100.00;97346.30;102843;1298;138490;-76
2022/12/24 03:59:17;;;;;;;46.50;25.10;;;;;;;2.24;100.00;97350.16;102938;1284;22487;-76
2022/12/24 04:01:43;;;;;;;36.60;21.50;;;;;;;2.23;100.00;97344.27;102978;1313;22476;-76
2022/12/24 04:04:10;;;;;;;32.40;20.50;;;;;;;2.23;100.00;97344.91;102853;1309;138729;-75
2022/12/24 04:06:36;;;;;;;39.00;22.80;;;;;;;2.25;100.00;97344.92;102915;1298;22605;-76
2022/12/24 04:09:03;;;;;;;27.60;16.40;;;;;;;2.26;100.00;97346.52;102928;1297;139139;-75
2022/12/24 04:11:31;;;;;;;27.30;16.00;;;;;;;2.29;100.00;97345.25;102988;1304;23231;-75
2022/12/24 04:13:58;;;;;;;30.30;16.90;;;;;;;2.35;100.00;97340.23;103048;1291;25322;-76
2022/12/24 04:16:24;;;;;;;35.20;19.70;;;;;;;2.40;100.00;97340.73;102855;1291;138386;-75
2022/12/24 04:18:50;;;;;;;31.80;19.00;;;;;;;2.44;100.00;97342.18;102729;1307;22482;-76
2022/12/24 04:21:16;;;;;;;28.40;15.50;;;;;;;2.45;100.00;97338.95;102724;1298;139512;-76
2022/12/24 04:23:43;;;;;;;32.10;18.10;;;;;;;2.49;100.00;97345.40;102785;1292;22508;-76
2022/12/24 04:26:11;;;;;;;33.40;19.60;;;;;;;2.50;100.00;97342.95;102526;1291;25248;-75
2022/12/24 04:28:38;;;;;;;36.60;21.00;;;;;;;2.50;100.00;97342.66;102893;1305;138279;-76
2022/12/24 04:31:15;;;;;;;30.90;16.20;;;;;;;2.49;100.00;97345.77;102972;1303;22759;-75
2022/12/24 04:33:42;;;;;;;33.20;18.10;;;;;;;2.49;100.00;97349.16;102820;1313;138335;-76
2022/12/24 04:36:12;;;;;;;32.40;17.00;;;;;;;2.51;100.00;97344.21;102894;1292;22488;-76
2022/12/24 04:38:38;;;;;;;29.60;16.10;;;;;;;2.55;100.00;97346.94;102673;1291;138400;-76
2022/12/24 04:41:07;;;;;;;28.40;15.50;;;;;;;2.59;100.00;97348.61;102757;1313;22696;-76
2022/12/24 04:43:33;;;;;;;;;;;;;;;2.63;100.00;97351.55;102847;1297;25337;-76
2022/12/24 04:46:14;;;;;;;29.40;14.90;;;;;;;2.67;100.00;97349.09;103033;1292;126454;-76
2022/12/24 04:48:41;;;;;;;29.80;15.10;;;;;;;2.74;100.00;97341.54;103036;1313;22931;-76
2022/12/24 04:51:08;;;;;;;31.30;16.00;;;;;;;2.79;100.00;97346.77;102861;1292;139054;-75
2022/12/24 04:53:35;;;;;;;29.50;15.90;;;;;;;2.83;100.00;97339.94;103170;1305;22522;-76
2022/12/24 04:56:02;;;;;;;31.40;16.30;;;;;;;2.87;100.00;97340.61;102974;1297;22475;-76
2022/12/24 04:58:28;;;;;;;29.20;16.20;;;;;;;2.92;100.00;97337.09;102675;1303;139974;-76
2022/12/24 05:00:55;;;;;;;28.90;15.80;;;;;;;2.96;100.00;97338.98;102530;1306;22497;-76
2022/12/24 05:03:21;;;;;;;27.70;15.70;;;;;;;3.00;100.00;97342.29;102751;1291;138720;-75
2022/12/24 05:05:48;;;;;;;31.20;15.40;;;;;;;3.05;100.00;97342.73;102774;1291;25547;-76
2022/12/24 05:08:14;;;;;;;27.50;16.80;;;;;;;3.07;100.00;97342.36;102905;1309;23353;-76
2022/12/24 05:10:40;;;;;;;29.70;16.30;;;;;;;3.10;100.00;97340.84;102991;1305;138312;-76
2022/12/24 05:13:06;;;;;;;35.00;17.90;;;;;;;3.13;100.00;97340.52;103034;1292;22486;-76
2022/12/24 05:15:33;;;;;;;28.60;15.60;;;;;;;3.15;100.00;97341.53;103065;1287;138282;-76
2022/12/24 05:17:59;;;;;;;29.20;17.40;;;;;;;3.18;100.00;97340.46;103019;1298;22498;-76
2022/12/24 05:20:25;;;;;;;33.70;18.70;;;;;;;3.19;100.00;97337.97;102963;1303;22529;-75
2022/12/24 05:28:32;;;;;;;33.10;17.90;;;;;;;3.23;100.00;97351.87;102993;1300;138383;-75
2022/12/24 05:30:58;;;;;;;30.10;17.60;;;;;;;3.24;100.00;97355.50;102909;1298;23882;-76
2022/12/24 05:33:24;;;;;;;35.20;22.70;;;;;;;3.25;100.00;97351.64;103037;1304;139563;-76
2022/12/24 05:35:51;;;;;;;37.10;21.80;;;;;;;3.26;100.00;97353.28;103006;1297;25393;-76
2022/12/24 05:38:18;;;;;;;38.20;21.40;;;;;;;3.26;100.00;97351.24;103236;1291;25353;-75
2022/12/24 05:40:45;;;;;;;35.70;19.80;;;;;;;3.28;100.00;97352.60;102960;1289;138188;-76
2022/12/24 05:43:12;;;;;;;36.70;20.90;;;;;;;3.30;100.00;97351.09;103084;1298;22543;-75
2022/12/24 05:45:38;;;;;;;40.50;22.40;;;;;;;3.32;100.00;97360.29;103037;1292;139396;-76
2022/12/24 05:48:06;;;;;;;36.80;21.40;;;;;;;3.33;100.00;97356.96;102896;1298;22479;-76
2022/12/24 05:50:34;;;;;;;37.70;21.80;;;;;;;3.33;100.00;97356.84;102737;1294;138957;-75
2022/12/24 05:53:05;;;;;;;37.90;20.60;;;;;;;3.33;100.00;97356.30;102931;1297;22471;-76
2022/12/24 05:55:31;;;;;;;38.40;20.60;;;;;;;3.34;100.00;97358.70;102890;1299;23890;-76
2022/12/24 05:57:57;;;;;;;40.40;24.10;;;;;;;3.35;100.00;97361.58;102828;1288;138293;-75
2022/12/24 06:00:24;;;;;;;38.30;25.20;;;;;;;3.36;100.00;97363.05;103043;1297;22603;-76
2022/12/24 06:02:50;;;;;;;40.70;25.90;;;;;;;3.38;100.00;97364.40;103106;1289;138526;-75
2022/12/24 06:05:16;;;;;;;47.00;28.60;;;;;;;3.39;100.00;97371.04;103111;1298;23890;-75
2022/12/24 06:07:42;;;;;;;40.40;24.80;;;;;;;3.40;100.00;97371.25;102926;1308;24328;-75
2022/12/24 06:10:09;;;;;;;43.70;25.50;;;;;;;3.41;100.00;97367.88;103088;1291;140150;-75
2022/12/24 06:12:35;;;;;;;44.00;27.60;;;;;;;3.42;100.00;97366.92;103080;1291;22498;-75
2022/12/24 06:15:01;;;;;;;43.20;25.80;;;;;;;3.43;100.00;97372.66;102958;1290;138532;-75
2022/12/24 06:17:27;;;;;;;42.70;25.70;;;;;;;3.42;100.00;97371.88;103004;1305;22561;-75
2022/12/24 06:19:54;;;;;;;47.00;29.40;;;;;;;3.41;100.00;97376.10;103112;1296;22603;-75
2022/12/24 06:22:20;;;;;;;48.30;30.10;;;;;;;3.41;100.00;97384.23;103111;1295;138772;-75
2022/12/24 06:24:46;;;;;;;43.60;28.50;;;;;;;3.40;100.00;97384.38;103104;1289;24199;-75
2022/12/24 06:27:12;;;;;;;42.40;26.40;;;;;;;3.39;100.00;97379.23;103389;1298;138560;-75
2022/12/24 06:29:38;;;;;;;35.80;22.20;;;;;;;3.40;100.00;97376.73;103047;1298;22501;-75
2022/12/24 06:32:05;;;;;;;38.80;24.90;;;;;;;3.40;100.00;97384.90;103177;1288;22521;-75
2022/12/24 06:34:31;;;;;;;40.10;25.30;;;;;;;3.42;100.00;97384.85;102944;1291;138255;-76
2022/12/24 06:36:57;;;;;;;37.70;25.40;;;;;;;3.41;100.00;97385.77;103142;1297;25215;-75
2022/12/24 06:39:24;;;;;;;37.30;22.50;;;;;;;3.41;100.00;97389.19;103244;1290;140294;-75
2022/12/24 06:41:50;;;;;;;33.10;22.10;;;;;;;3.42;100.00;97391.68;103015;1299;22514;-75
2022/12/24 06:44:16;;;;;;;34.90;23.10;;;;;;;3.42;100.00;97394.28;103036;1294;22482;-76
2022/12/24 06:46:43;;;;;;;31.90;22.30;;;;;;;3.42;100.00;97395.89;103310;1289;138377;-75
2022/12/24 06:49:09;;;;;;;36.80;23.20;;;;;;;3.44;100.00;97404.70;103063;1305;24357;-75
2022/12/24 06:51:35;;;;;;;36.80;23.70;;;;;;;3.46;100.00;97404.05;102843;1313;138648;-75
2022/12/24 06:54:01;;;;;;;35.20;23.30;;;;;;;3.47;100.00;97409.59;103101;1289;22502;-75
2022/12/24 06:56:27;;;;;;;34.70;22.40;;;;;;;3.49;100.00;97412.24;102990;1292;24257;-75
2022/12/24 06:58:53;;;;;;;34.70;22.50;;;;;;;3.52;100.00;97414.42;103024;1300;138193;-75
2022/12/24 07:01:22;;;;;;;33.30;22.10;;;;;;;3.54;100.00;97423.37;103106;1303;22489;-75
2022/12/24 07:03:49;;;;;;;33.90;21.80;;;;;;;3.57;100.00;97427.27;102954;1297;140363;-75
2022/12/24 07:06:24;;;;;;;34.70;22.00;;;;;;;3.61;100.00;97435.55;103024;1287;23125;-75
2022/12/24 07:08:51;;;;;;;31.90;22.10;;;;;;;3.64;100.00;97438.17;103157;1304;140075;-75
2022/12/24 07:11:17;;;;;;;32.20;21.70;;;;;;;3.67;100.00;97435.69;103216;1307;24292;-75
2022/12/24 07:13:43;;;;;;;33.00;22.70;;;;;;;3.71;100.00;97434.22;103404;1295;22503;-75
2022/12/24 07:16:10;;;;;;;34.00;22.20;;;;;;;3.74;100.00;97433.40;103885;1281;140020;-75
2022/12/24 07:18:36;;;;;;;33.40;23.70;;;;;;;3.78;100.00;97430.49;103562;1289;23924;-75
2022/12/24 07:21:04;;;;;;;34.20;23.20;;;;;;;3.82;100.00;97430.81;103020;1304;139059;-75
2022/12/24 07:23:30;;;;;;;36.70;24.20;;;;;;;3.86;100.00;97438.05;103248;1295;22605;-75
2022/12/24 07:26:05;;;;;;;33.50;22.30;;;;;;;3.92;100.00;97444.45;103354;1289;22483;-75
2022/12/24 07:28:31;;;;;;;36.70;24.70;;;;;;;3.96;100.00;97439.66;103380;1304;138323;-75
2022/12/24 07:30:58;;;;;;;35.90;23.20;;;;;;;4.01;100.00;97440.09;102909;1301;24353;-75
2022/12/24 07:33:25;;;;;;;31.60;20.50;;;;;;;4.03;100.00;97443.39;103474;1289;138194;-75
2022/12/24 07:36:06;;;;;;;32.30;21.50;;;;;;;4.05;100.00;97444.10;103153;1312;23903;-75
2022/12/24 07:38:34;;;;;;;32.60;21.10;;;;;;;4.07;100.00;97445.33;103359;1305;138424;-75
2022/12/24 07:41:00;;;;;;;30.80;20.10;;;;;;;4.08;100.00;97443.27;102989;1288;22493;-75
2022/12/24 07:43:27;;;;;;;32.30;21.80;;;;;;;4.09;100.00;97449.23;102947;1298;22524;-75
2022/12/24 07:45:57;;;;;;;36.80;23.30;;;;;;;4.11;100.00;97452.77;102936;1292;138251;-75
2022/12/24 07:48:25;;;;;;;34.50;23.50;;;;;;;4.10;100.00;97453.25;102983;1294;22487;-75
2022/12/24 07:50:51;;;;;;;39.30;24.90;;;;;;;4.10;100.00;97453.94;102846;1301;139459;-75
2022/12/24 07:53:18;;;;;;;38.10;24.80;;;;;;;4.10;100.00;97454.86;103069;1292;25354;-75
2022/12/24 07:55:44;;;;;;;46.30;27.60;;;;;;;4.11;100.00;97458.48;102950;1303;24175;-75
2022/12/24 07:58:10;;;;;;;42.60;27.00;;;;;;;4.13;100.00;97460.20;102940;1305;138247;-75
2022/12/24 08:00:37;;;;;;;38.70;25.50;;;;;;;4.13;100.00;97459.20;102876;1313;22482;-75
2022/12/24 08:03:03;;;;;;;39.90;25.70;;;;;;;4.15;100.00;97456.77;102897;1305;138577;-75
2022/12/24 08:05:35;;;;;;;42.30;28.20;;;;;;;4.16;100.00;97462.93;102823;1294;24124;-75
2022/12/24 08:08:01;;;;;;;47.40;31.20;;;;;;;4.17;100.00;97469.23;103072;1289;25294;-74
2022/12/24 08:10:27;;;;;;;42.60;29.10;;;;;;;4.17;100.00;97471.33;103003;1285;138426;-74
2022/12/24 08:12:53;;;;;;;46.40;29.30;;;;;;;4.16;100.00;97477.11;102958;1304;25278;-74
2022/12/24 08:15:20;;;;;;;38.70;25.20;;;;;;;4.16;100.00;97474.63;103456;1297;139346;-75
2022/12/24 08:17:46;;;;;;;37.00;23.40;;;;;;;4.17;100.00;97479.34;104215;1292;22519;-74
2022/12/24 08:20:12;;;;;;;37.20;23.70;;;;;;;4.19;100.00;97480.26;104403;1291;22490;-74
2022/12/24 08:22:38;;;;;;;32.90;20.70;;;;;;;4.25;100.00;97480.35;104122;1291;138238;-74
2022/12/24 08:25:05;;;;;;;40.80;25.40;;;;;;;4.32;100.00;97483.73;104527;1292;22466;-75
2022/12/24 08:27:31;;;;;;;36.20;23.00;;;;;;;4.39;100.00;97486.98;105694;1305;138337;-75
2022/12/24 08:29:57;;;;;;;33.30;21.90;;;;;;;4.48;100.00;97489.65;105984;1313;22604;-75
2022/12/24 08:32:23;;;;;;;34.60;22.60;;;;;;;4.56;100.00;97486.08;104459;1289;23450;-74
2022/12/24 08:34:50;;;;;;;34.50;22.80;;;;;;;4.65;100.00;97490.35;103576;1295;138053;-74
2022/12/24 08:37:16;;;;;;;34.00;22.90;;;;;;;4.74;100.00;97494.35;103246;1288;22485;-75
2022/12/24 08:39:42;;;;;;;33.10;22.20;;;;;;;4.80;100.00;97499.13;103774;1287;139245;-75
2022/12/24 08:42:08;;;;;;;33.10;21.20;;;;;;;4.84;100.00;97501.79;103338;1294;22455;-75
2022/12/24 08:44:34;;;;;;;31.00;21.80;;;;;;;4.89;100.00;97507.08;103093;1305;138485;-74
2022/12/24 08:47:00;;;;;;;34.00;23.30;;;;;;;4.91;100.00;97510.42;103015;1295;22498;-74
2022/12/24 08:49:26;;;;;;;34.20;21.60;;;;;;;4.94;100.00;97506.08;104319;1289;25342;-75
2022/12/24 08:51:53;;;;;;;32.20;22.00;;;;;;;4.97;100.00;97511.02;102841;1307;138391;-75
2022/12/24 08:54:21;;;;;;;33.40;20.90;;;;;;;5.01;100.00;97505.55;102914;1304;22945;-75
2022/12/24 08:56:47;;;;;;;28.80;19.10;;;;;;;5.05;100.00;97501.26;102898;1282;138563;-75
2022/12/24 08:59:13;;;;;;;29.00;18.20;;;;;;;5.10;100.00;97502.20;102933;1287;23299;-78
2022/12/24 09:01:39;;;;;;;28.20;18.40;;;;;;;5.17;100.00;97504.25;102942;1296;22480;-77
2022/12/24 09:04:05;;;;;;;29.80;18.10;;;;;;;5.31;100.00;97507.91;102869;1295;138749;-74
2022/12/24 09:06:32;;;;;;;29.70;18.10;;;;;;;5.43;100.00;97506.37;102958;1311;25277;-73
2022/12/24 09:08:58;;;;;;;22.70;16.40;;;;;;;5.55;100.00;97507.15;102868;1289;138502;-75
2022/12/24 09:11:24;;;;;;;26.90;16.90;;;;;;;5.61;100.00;97516.38;103144;1294;22501;-75
2022/12/24 09:13:51;;;;;;;24.00;16.20;;;;;;;5.66;100.00;97526.05;102996;1302;22573;-76
2022/12/24 09:16:17;;;;;;;25.00;16.60;;;;;;;5.69;100.00;97523.52;102886;1313;138426;-78
2022/12/24 09:18:43;;;;;;;24.80;16.00;;;;;;;5.71;100.00;97527.92;102977;1302;22485;-74
2022/12/24 09:21:16;;;;;;;23.10;15.40;;;;;;;5.74;100.00;97530.20;102954;1311;138941;-74
2022/12/24 09:23:44;;;;;;;20.30;12.90;;;;;;;5.77;100.00;97530.93;102836;1303;24247;-74
2022/12/24 09:26:20;;;;;;;20.90;12.80;;;;;;;5.80;100.00;97528.66;103075;1308;22480;-74
2022/12/24 09:28:48;;;;;;;20.20;12.70;;;;;;;5.84;100.00;97536.82;103069;1303;140714;-74
2022/12/24 09:31:15;;;;;;;21.10;14.40;;;;;;;5.87;100.00;97538.59;103106;1295;25067;-74
2022/12/24 09:33:43;;;;;;;18.60;12.70;;;;;;;5.88;100.00;97536.73;102988;1305;140455;-74
2022/12/24 09:36:09;;;;;;;19.20;12.00;;;;;;;5.89;100.00;97543.98;103048;1313;22516;-74
2022/12/24 09:38:37;;;;;;;19.20;12.00;;;;;;;5.88;100.00;97544.89;102869;1289;138318;-74
2022/12/24 09:41:20;;;;;;;14.80;10.10;;;;;;;5.88;100.00;97543.69;103120;1311;23495;-74
2022/12/24 09:43:55;;;;;;;16.00;9.40;;;;;;;5.90;100.00;97539.70;103033;1310;22626;-75
2022/12/24 09:46:31;;;;;;;15.90;10.00;;;;;;;5.92;100.00;97544.10;103083;1296;138293;-75
2022/12/24 09:49:04;;;;;;;15.00;9.30;;;;;;;5.90;100.00;97551.36;103098;1304;22473;-74
2022/12/24 09:51:53;;;;;;;9.10;7.50;;;;;;;5.91;100.00;97555.98;102952;1292;138168;-75
2022/12/24 09:54:29;;;;;;;12.50;8.00;;;;;;;5.95;100.00;97554.34;102994;1289;25307;-75
2022/12/24 09:57:05;;;;;;;13.80;7.80;;;;;;;5.98;100.00;97560.73;102865;1297;139604;-74
2022/12/24 09:59:41;;;;;;;13.40;8.80;;;;;;;5.99;100.00;97559.59;102966;1300;22478;-74
2022/12/24 10:02:18;;;;;;;14.20;8.40;;;;;;;6.01;100.00;97557.19;102973;1313;22483;-74
2022/12/24 10:04:47;;;;;;;14.80;7.90;;;;;;;6.02;100.00;97569.10;102912;1289;138187;-74
2022/12/24 10:07:48;;;;;;;14.30;8.10;;;;;;;6.02;100.00;97565.81;102976;1291;22487;-75
2022/12/24 10:10:36;;;;;;;14.10;7.00;;;;;;;6.01;100.00;97572.16;102966;1287;139568;-74
2022/12/24 10:13:49;;;;;;;13.20;6.10;;;;;;;5.97;100.00;97577.92;102951;1298;25303;-75
2022/12/24 10:16:33;;;;;;;10.80;5.80;;;;;;;5.93;100.00;97575.56;101823;1307;138011;-74
2022/12/24 10:19:21;;;;;;;11.30;6.80;;;;;;;5.88;100.00;97579.05;102020;1296;25280;-74
2022/12/24 10:21:52;;;;;;;10.50;6.00;;;;;;;5.83;100.00;97583.63;101909;1305;139076;-74
2022/12/24 10:24:22;;;;;;;11.00;7.10;;;;;;;5.80;100.00;97585.90;102180;1296;24263;-74
2022/12/24 10:27:07;;;;;;;11.70;7.30;;;;;;;5.77;100.00;97586.20;102211;1294;139543;-74
2022/12/24 10:29:38;;;;;;;11.40;7.40;;;;;;;5.75;100.00;97586.74;102283;1302;25771;-74
2022/12/24 10:32:07;;;;;;;16.10;7.60;;;;;;;5.72;100.00;97589.06;102415;1302;22480;-74
2022/12/24 10:34:45;;;;;;;14.10;7.30;;;;;;;5.71;100.00;97588.55;102153;1310;138515;-74
2022/12/24 10:37:30;;;;;;;13.00;7.00;;;;;;;5.70;100.00;97590.20;102197;1295;23215;-74
2022/12/24 10:39:58;;;;;;;11.50;6.40;;;;;;;5.70;100.00;97588.65;102105;1310;138353;-74
2022/12/24 10:42:37;;;;;;;11.70;7.00;;;;;;;5.73;100.00;97585.90;102305;1305;23213;-74
2022/12/24 10:45:06;;;;;;;12.90;7.50;;;;;;;5.75;100.00;97592.05;102172;1311;138542;-74
2022/12/24 10:47:33;;;;;;;;;;;;;;;5.79;100.00;97598.39;102748;1310;25240;-74
2022/12/24 10:50:09;;;;;;;12.90;7.30;;;;;;;5.82;100.00;97588.64;103009;1282;22472;-74
2022/12/24 10:52:40;;;;;;;12.40;7.60;;;;;;;5.89;100.00;97602.23;102879;1293;138033;-74
2022/12/24 10:55:15;;;;;;;12.40;8.60;;;;;;;5.99;100.00;97593.68;103220;1296;25590;-75
2022/12/24 10:57:43;;;;;;;16.70;9.20;;;;;;;6.09;100.00;97594.82;102844;1307;138717;-74
2022/12/24 11:00:21;;;;;;;19.80;10.80;;;;;;;6.19;100.00;97603.40;102898;1313;23312;-74
2022/12/24 11:02:48;;;;;;;11.80;7.70;;;;;;;6.31;100.00;97602.59;102601;1302;138923;-74
2022/12/24 11:05:32;;;;;;;14.50;7.40;;;;;;;6.40;100.00;97605.59;102997;1297;24111;-75
2022/12/24 11:08:16;;;;;;;12.30;5.90;;;;;;;6.46;100.00;97605.82;102982;1312;22839;-74
2022/12/24 11:11:01;;;;;;;11.60;6.00;;;;;;;6.50;100.00;97604.91;102930;1300;138711;-74
2022/12/24 11:13:37;;;;;;;10.40;6.00;;;;;;;6.54;100.00;97603.91;102556;1312;22474;-75
2022/12/24 11:16:39;;;;;;;12.50;6.80;;;;;;;6.58;100.00;97611.52;102786;1313;138093;-74
2022/12/24 11:19:18;;;;;;;10.00;6.60;;;;;;;6.62;100.00;97616.14;102289;1296;22570;-75
2022/12/24 11:21:44;;;;;;;8.90;5.60;;;;;;;6.63;100.00;97616.45;102168;1312;138134;-74
2022/12/24 11:24:10;;;;;;;9.70;6.10;;;;;;;6.64;100.00;97617.86;102348;1304;22929;-75
2022/12/24 11:26:38;;;;;;;9.00;5.50;;;;;;;6.63;100.00;97619.63;102303;1298;25371;-75
2022/12/24 11:29:13;;;;;;;11.20;5.90;;;;;;;6.62;100.00;97628.80;102148;1296;24266;-74